Time;durP1;ratioP1;P1;durP2;ratioP2;P2;SDS_P1;SDS_P2;PMS_P1;PMS_P2;Temp;Humidity;BMP_temperature;BMP_pressure;BME280_temperature;BME280_humidity;BME280_pressure;Samples;Min_cycle;Max_cycle;Signal;HPM_P1;HPM_P2
2021/08/01 00:01:21;;;;;;;3.35;2.92;;;20.30;64.00;;;;;;5069577;28;20039;-80
2021/08/01 00:03:47;;;;;;;4.35;2.90;;;20.30;64.10;;;;;;5065849;28;20119;-82
2021/08/01 00:06:13;;;;;;;3.63;2.58;;;20.30;64.00;;;;;;5070043;28;20031;-81
2021/08/01 00:08:41;;;;;;;4.03;3.10;;;20.20;64.00;;;;;;5049757;28;20033;-81
2021/08/01 00:11:08;;;;;;;4.40;3.30;;;20.20;64.00;;;;;;5055002;28;20035;-81
2021/08/01 00:13:33;;;;;;;4.82;3.33;;;20.20;64.10;;;;;;5069246;28;20036;-81
2021/08/01 00:16:00;;;;;;;4.10;3.20;;;20.20;64.10;;;;;;5050384;28;20031;-80
2021/08/01 00:18:26;;;;;;;3.70;2.83;;;20.10;64.10;;;;;;5058241;28;20613;-81
2021/08/01 00:20:52;;;;;;;3.67;2.85;;;20.10;64.70;;;;;;5044359;28;20119;-80
2021/08/01 00:23:17;;;;;;;4.22;3.05;;;20.10;64.10;;;;;;5074201;28;20043;-81
2021/08/01 00:25:43;;;;;;;3.88;2.92;;;20.10;64.10;;;;;;5064478;28;20031;-81
2021/08/01 00:28:09;;;;;;;3.85;3.03;;;20.10;64.20;;;;;;5025754;28;20032;-81
2021/08/01 00:30:35;;;;;;;4.05;3.00;;;20.00;64.20;;;;;;5060961;28;20055;-81
2021/08/01 00:33:01;;;;;;;3.97;3.00;;;20.00;64.20;;;;;;5039295;28;20056;-80
2021/08/01 00:35:27;;;;;;;5.32;3.08;;;20.00;64.20;;;;;;5056405;28;20032;-81
2021/08/01 00:37:53;;;;;;;3.65;2.80;;;20.00;64.30;;;;;;5071745;28;20511;-81
2021/08/01 00:40:20;;;;;;;4.18;3.22;;;20.00;64.30;;;;;;5045675;28;20060;-81
2021/08/01 00:42:47;;;;;;;4.57;3.22;;;20.00;64.30;;;;;;5053074;28;20474;-81
2021/08/01 00:45:14;;;;;;;4.30;3.15;;;20.00;64.30;;;;;;5039505;28;20115;-82
2021/08/01 00:47:42;;;;;;;4.63;3.25;;;20.00;64.40;;;;;;5054999;28;20032;-80
2021/08/01 00:50:11;;;;;;;4.93;3.13;;;20.00;64.40;;;;;;5054799;28;20035;-80
2021/08/01 00:52:38;;;;;;;4.40;3.42;;;19.90;64.40;;;;;;5058553;28;20051;-80
2021/08/01 00:55:09;;;;;;;3.92;3.05;;;19.90;64.40;;;;;;5045423;28;20099;-82
2021/08/01 00:57:36;;;;;;;5.28;3.30;;;19.90;64.50;;;;;;5073301;28;20052;-80
2021/08/01 01:00:05;;;;;;;4.95;3.38;;;19.80;64.50;;;;;;5074576;28;20118;-81
2021/08/01 01:02:36;;;;;;;4.18;3.03;;;19.80;64.50;;;;;;5046293;28;20043;-81
2021/08/01 01:05:07;;;;;;;4.72;3.45;;;19.80;64.60;;;;;;5063511;28;20119;-81
2021/08/01 01:07:43;;;;;;;4.15;3.10;;;19.80;64.70;;;;;;5070880;28;20032;-80
2021/08/01 01:10:38;;;;;;;5.40;3.60;;;19.80;64.70;;;;;;5045988;28;20024;-80
2021/08/01 01:13:13;;;;;;;4.45;3.22;;;19.70;64.80;;;;;;5060143;28;20114;-80
2021/08/01 01:15:47;;;;;;;4.20;3.33;;;19.70;64.60;;;;;;5047898;28;20032;-80
2021/08/01 01:18:19;;;;;;;4.28;3.38;;;19.70;64.80;;;;;;5068286;28;20036;-80
2021/08/01 01:21:05;;;;;;;4.00;2.97;;;19.70;64.70;;;;;;5049419;28;20044;-81
2021/08/01 01:23:37;;;;;;;3.92;2.95;;;19.60;64.80;;;;;;5070399;28;20427;-80
2021/08/01 01:26:38;;;;;;;4.20;2.88;;;19.60;64.70;;;;;;5064472;28;20031;-81
2021/08/01 01:29:20;;;;;;;4.33;3.40;;;19.60;64.80;;;;;;5061318;28;20495;-81
2021/08/01 01:31:46;;;;;;;4.63;3.00;;;19.60;64.80;;;;;;5060786;28;20289;-80
2021/08/01 01:34:37;;;;;;;4.15;2.97;;;19.60;64.90;;;;;;5062115;28;20024;-81
2021/08/01 01:37:07;;;;;;;4.35;3.20;;;19.50;65.00;;;;;;5041279;28;20097;-80
2021/08/01 01:39:38;;;;;;;4.22;3.08;;;19.50;64.90;;;;;;5055278;28;20024;-80
2021/08/01 01:42:12;;;;;;;4.15;3.10;;;19.50;64.90;;;;;;5074632;28;20028;-81
2021/08/01 01:44:44;;;;;;;4.47;3.38;;;19.50;64.90;;;;;;5055673;28;20020;-81
2021/08/01 01:47:11;;;;;;;4.07;3.08;;;19.50;65.00;;;;;;5052881;28;20165;-81
2021/08/01 01:49:40;;;;;;;4.25;3.03;;;19.50;65.10;;;;;;5077482;28;20494;-81
2021/08/01 01:52:14;;;;;;;4.03;3.05;;;19.40;65.00;;;;;;5068948;28;20488;-81
2021/08/01 01:54:44;;;;;;;;;;;19.40;65.10;;;;;;5065808;28;20029;-81
2021/08/01 01:57:12;;;;;;;3.85;2.80;;;19.40;64.90;;;;;;5050865;28;20276;-81
2021/08/01 01:59:39;;;;;;;4.28;2.92;;;19.40;65.00;;;;;;5057532;28;20020;-81
2021/08/01 02:02:08;;;;;;;3.72;2.67;;;19.40;65.10;;;;;;5034492;28;20035;-81
2021/08/01 02:04:36;;;;;;;3.58;2.75;;;19.40;65.20;;;;;;5058218;28;20032;-80
2021/08/01 02:07:21;;;;;;;4.82;3.20;;;19.30;65.20;;;;;;5086647;28;20039;-81
2021/08/01 02:10:13;;;;;;;4.28;3.20;;;19.30;65.20;;;;;;5057354;28;20032;-81
2021/08/01 02:12:53;;;;;;;4.38;3.25;;;19.30;65.40;;;;;;5058519;28;20091;-81
2021/08/01 02:15:34;;;;;;;4.38;3.38;;;19.30;65.30;;;;;;5063131;28;20032;-80
2021/08/01 02:18:08;;;;;;;4.97;3.58;;;19.30;65.30;;;;;;5056851;28;20072;-81
2021/08/01 02:20:39;;;;;;;3.38;2.72;;;19.20;65.30;;;;;;5056776;28;20023;-81
2021/08/01 02:23:25;;;;;;;3.92;3.03;;;19.20;65.30;;;;;;5065255;28;20020;-81
2021/08/01 02:25:53;;;;;;;4.50;3.50;;;19.20;65.30;;;;;;5080027;28;20769;-81
2021/08/01 02:28:23;;;;;;;4.07;2.97;;;19.20;65.40;;;;;;5054580;28;20086;-82
2021/08/01 02:30:54;;;;;;;4.70;3.42;;;19.10;65.40;;;;;;5052246;28;20069;-81
2021/08/01 02:33:26;;;;;;;4.45;3.13;;;19.20;65.50;;;;;;5067991;28;20025;-81
2021/08/01 02:35:59;;;;;;;4.68;3.60;;;19.10;65.50;;;;;;5072255;28;20024;-80
2021/08/01 02:38:28;;;;;;;4.57;3.33;;;19.10;65.50;;;;;;5068199;28;20028;-81
2021/08/01 02:40:57;;;;;;;4.90;3.60;;;19.10;65.50;;;;;;5065276;28;20015;-81
2021/08/01 02:43:27;;;;;;;5.15;3.88;;;19.10;65.60;;;;;;5068663;28;20028;-80
2021/08/01 02:45:54;;;;;;;4.07;3.05;;;19.10;65.60;;;;;;5048582;28;20028;-81
2021/08/01 02:48:22;;;;;;;4.63;3.30;;;19.10;65.60;;;;;;5058059;28;20029;-81
2021/08/01 02:51:01;;;;;;;4.97;3.67;;;19.10;65.60;;;;;;5047632;28;20052;-81
2021/08/01 02:53:30;;;;;;;4.38;3.40;;;19.10;65.80;;;;;;5068145;28;20031;-81
2021/08/01 02:56:00;;;;;;;4.70;3.35;;;19.10;65.60;;;;;;5056308;28;20050;-81
2021/08/01 02:58:29;;;;;;;4.82;3.78;;;19.10;65.70;;;;;;5059862;28;20028;-81
2021/08/01 03:00:56;;;;;;;4.57;3.40;;;19.00;65.60;;;;;;5056048;28;20032;-81
2021/08/01 03:03:23;;;;;;;5.20;3.55;;;19.00;65.70;;;;;;5071526;28;20020;-82
2021/08/01 03:05:49;;;;;;;4.60;3.58;;;19.00;65.70;;;;;;5050978;28;20392;-81
2021/08/01 03:08:16;;;;;;;4.82;3.63;;;19.00;65.80;;;;;;5059310;28;20028;-81
2021/08/01 03:10:43;;;;;;;4.90;3.63;;;19.00;65.80;;;;;;5058166;28;20031;-81
2021/08/01 03:13:09;;;;;;;4.47;3.42;;;19.00;65.80;;;;;;5068104;28;20429;-81
2021/08/01 03:15:37;;;;;;;4.32;3.35;;;19.00;65.90;;;;;;5056058;28;20464;-82
2021/08/01 03:18:04;;;;;;;5.20;3.67;;;18.90;65.80;;;;;;5031239;28;20107;-81
2021/08/01 03:20:31;;;;;;;4.75;3.80;;;19.00;65.90;;;;;;5050383;28;20024;-81
2021/08/01 03:23:16;;;;;;;4.30;3.50;;;19.00;66.00;;;;;;5068850;28;20107;-81
2021/08/01 03:26:10;;;;;;;4.73;3.80;;;18.90;65.90;;;;;;5003373;28;20054;-81
2021/08/01 03:28:41;;;;;;;4.18;3.45;;;18.90;65.90;;;;;;5072150;28;20028;-81
2021/08/01 03:31:07;;;;;;;4.32;3.58;;;18.90;65.90;;;;;;5048871;28;20086;-81
2021/08/01 03:33:40;;;;;;;4.90;3.70;;;18.90;66.00;;;;;;5050330;28;20114;-81
2021/08/01 03:36:06;;;;;;;4.82;3.55;;;18.90;66.00;;;;;;5031831;28;20044;-81
2021/08/01 03:39:05;;;;;;;4.45;3.38;;;18.90;66.10;;;;;;5019563;28;20492;-80
2021/08/01 03:41:36;;;;;;;5.03;3.92;;;18.90;66.00;;;;;;5050695;28;20020;-81
2021/08/01 03:44:02;;;;;;;4.57;3.28;;;18.90;66.10;;;;;;5066285;28;20039;-81
2021/08/01 03:46:28;;;;;;;3.92;3.35;;;18.90;66.20;;;;;;5066244;28;20043;-81
2021/08/01 03:48:54;;;;;;;4.07;3.17;;;18.90;66.20;;;;;;5042418;28;20033;-82
2021/08/01 03:51:20;;;;;;;4.80;3.75;;;18.90;66.20;;;;;;5057690;28;20024;-80
2021/08/01 03:53:46;;;;;;;4.28;3.60;;;18.90;66.20;;;;;;5058743;28;20040;-80
2021/08/01 03:56:11;;;;;;;4.35;3.40;;;18.90;66.20;;;;;;5066234;28;20063;-81
2021/08/01 03:58:37;;;;;;;4.25;3.50;;;18.90;66.20;;;;;;5066655;28;20490;-81
2021/08/01 04:01:03;;;;;;;5.20;3.92;;;18.90;66.20;;;;;;5065838;28;20028;-81
2021/08/01 04:03:28;;;;;;;4.95;3.58;;;18.90;66.20;;;;;;5068884;28;20063;-81
2021/08/01 04:05:54;;;;;;;4.55;3.47;;;18.90;66.30;;;;;;5041475;28;20466;-81
2021/08/01 04:08:20;;;;;;;4.28;3.25;;;18.90;66.30;;;;;;5043442;28;20506;-81
2021/08/01 04:10:46;;;;;;;4.57;3.63;;;18.90;66.30;;;;;;5056087;28;20039;-81
2021/08/01 04:13:12;;;;;;;4.45;3.22;;;18.80;66.20;;;;;;5043749;28;20118;-82
2021/08/01 04:15:38;;;;;;;4.68;3.67;;;18.90;66.30;;;;;;5057298;28;20031;-81
2021/08/01 04:18:05;;;;;;;4.85;3.53;;;18.80;66.30;;;;;;5065495;28;20346;-81
2021/08/01 04:20:31;;;;;;;4.07;3.13;;;18.90;66.30;;;;;;5070324;28;20024;-81
2021/08/01 04:22:57;;;;;;;4.30;3.22;;;18.80;66.30;;;;;;5058410;28;20028;-81
2021/08/01 04:25:23;;;;;;;4.88;3.38;;;18.90;66.40;;;;;;5074431;28;20119;-81
2021/08/01 04:27:49;;;;;;;4.03;3.20;;;18.90;66.40;;;;;;5066174;28;20102;-81
2021/08/01 04:30:15;;;;;;;4.20;3.38;;;18.90;66.40;;;;;;5061952;28;20144;-81
2021/08/01 04:32:41;;;;;;;4.35;3.30;;;18.80;66.30;;;;;;5058807;28;20024;-81
2021/08/01 04:35:07;;;;;;;4.43;3.55;;;18.90;66.40;;;;;;5040185;28;20047;-81
2021/08/01 04:37:33;;;;;;;4.68;3.55;;;18.80;66.40;;;;;;5049386;28;20024;-81
2021/08/01 04:39:59;;;;;;;4.68;3.50;;;18.80;66.40;;;;;;5057274;28;20029;-81
2021/08/01 04:42:25;;;;;;;4.05;3.40;;;18.80;66.40;;;;;;5064658;28;20077;-80
2021/08/01 04:44:50;;;;;;;4.72;3.35;;;18.80;66.40;;;;;;5046101;28;20032;-81
2021/08/01 04:47:16;;;;;;;4.25;3.55;;;18.80;66.40;;;;;;5039445;28;20063;-81
2021/08/01 04:49:42;;;;;;;4.53;3.55;;;18.80;66.50;;;;;;5061047;28;20056;-80
2021/08/01 04:52:15;;;;;;;4.35;3.42;;;18.80;66.50;;;;;;5050018;28;20036;-80
2021/08/01 04:54:40;;;;;;;4.57;3.35;;;18.80;66.50;;;;;;5053546;28;20054;-81
2021/08/01 04:57:06;;;;;;;4.32;3.10;;;18.80;66.50;;;;;;5049522;28;20434;-80
2021/08/01 04:59:35;;;;;;;3.90;3.10;;;18.80;66.50;;;;;;5035848;28;20032;-81
2021/08/01 05:02:03;;;;;;;4.28;3.40;;;18.80;66.60;;;;;;5057694;28;20024;-81
2021/08/01 05:04:29;;;;;;;4.57;3.33;;;18.80;66.60;;;;;;5048106;28;20028;-80
2021/08/01 05:06:55;;;;;;;4.05;3.25;;;18.80;66.60;;;;;;5067084;28;20437;-80
2021/08/01 05:09:21;;;;;;;4.55;3.35;;;18.80;66.60;;;;;;5053081;28;20143;-80
2021/08/01 05:11:47;;;;;;;4.95;3.55;;;18.80;66.60;;;;;;5058717;28;20396;-80
2021/08/01 05:14:13;;;;;;;4.78;3.45;;;18.80;66.70;;;;;;5058199;28;20024;-80
2021/08/01 05:16:40;;;;;;;5.00;3.70;;;18.80;66.70;;;;;;5075769;28;20032;-80
2021/08/01 05:19:06;;;;;;;4.47;3.30;;;18.80;66.70;;;;;;5076553;28;20032;-81
2021/08/01 05:21:32;;;;;;;4.70;3.42;;;18.80;66.70;;;;;;5078393;28;20021;-81
2021/08/01 05:23:58;;;;;;;4.70;3.55;;;18.80;66.70;;;;;;5070092;28;20028;-80
2021/08/01 05:26:24;;;;;;;4.75;3.45;;;18.80;66.70;;;;;;5055882;28;20051;-80
2021/08/01 05:28:49;;;;;;;4.88;3.65;;;18.80;66.70;;;;;;5047440;28;20032;-81
2021/08/01 05:31:15;;;;;;;3.97;2.97;;;18.80;66.70;;;;;;5074034;28;20036;-81
2021/08/01 05:33:41;;;;;;;4.60;3.55;;;18.80;66.80;;;;;;5065785;28;20425;-81
2021/08/01 05:36:08;;;;;;;4.45;3.25;;;18.80;66.70;;;;;;5058870;28;20035;-81
2021/08/01 05:38:38;;;;;;;4.45;3.08;;;18.80;66.80;;;;;;5053346;28;20392;-82
2021/08/01 05:41:05;;;;;;;4.25;3.10;;;18.80;66.80;;;;;;5054209;28;20037;-81
2021/08/01 05:43:31;;;;;;;4.75;3.60;;;18.80;66.80;;;;;;5043896;28;20025;-81
2021/08/01 05:45:58;;;;;;;4.88;3.63;;;18.80;66.80;;;;;;5053922;28;20477;-81
2021/08/01 05:48:24;;;;;;;5.57;3.35;;;18.90;66.90;;;;;;5068438;28;20030;-81
2021/08/01 05:50:50;;;;;;;4.53;3.42;;;18.80;66.80;;;;;;5057870;28;20026;-81
2021/08/01 05:53:20;;;;;;;5.22;4.00;;;18.90;66.90;;;;;;5066944;28;20407;-81
2021/08/01 05:55:49;;;;;;;5.95;3.90;;;18.90;66.90;;;;;;5056593;28;20063;-81
2021/08/01 05:58:15;;;;;;;5.40;4.10;;;18.90;67.00;;;;;;5066117;28;20032;-82
2021/08/01 06:00:41;;;;;;;4.97;3.65;;;18.80;66.80;;;;;;5082564;28;20074;-81
2021/08/01 06:03:06;;;;;;;4.95;3.70;;;18.90;66.90;;;;;;5026205;28;20033;-81
2021/08/01 06:05:32;;;;;;;5.95;4.28;;;18.90;66.90;;;;;;5054202;28;20029;-81
2021/08/01 06:07:58;;;;;;;5.35;4.00;;;18.90;66.90;;;;;;5045454;28;20031;-81
2021/08/01 06:10:24;;;;;;;5.68;3.95;;;18.90;66.90;;;;;;5068994;28;20024;-81
2021/08/01 06:12:49;;;;;;;5.38;3.97;;;18.90;66.90;;;;;;5032727;28;20124;-81
2021/08/01 06:15:15;;;;;;;5.90;4.20;;;18.90;67.00;;;;;;5064347;28;20480;-81
2021/08/01 06:17:41;;;;;;;5.18;4.18;;;18.90;67.00;;;;;;5042736;28;20027;-81
2021/08/01 06:20:07;;;;;;;6.00;4.18;;;18.90;66.90;;;;;;5050656;28;20025;-81
2021/08/01 06:22:33;;;;;;;6.10;4.00;;;18.90;67.00;;;;;;5040020;28;20024;-81
2021/08/01 06:24:59;;;;;;;6.00;4.68;;;18.90;67.00;;;;;;5041236;28;20369;-81
2021/08/01 06:27:25;;;;;;;6.05;4.68;;;18.90;67.00;;;;;;5051314;28;20028;-81
2021/08/01 06:29:51;;;;;;;6.22;4.78;;;18.90;67.00;;;;;;5053857;28;20040;-81
2021/08/01 06:32:16;;;;;;;6.30;4.65;;;18.90;67.00;;;;;;5051931;28;20028;-81
2021/08/01 06:34:42;;;;;;;6.68;5.35;;;19.00;67.00;;;;;;5055591;28;20131;-81
2021/08/01 06:37:08;;;;;;;6.53;5.15;;;19.00;67.00;;;;;;5068466;28;20472;-81
2021/08/01 06:39:34;;;;;;;7.88;5.70;;;19.00;67.00;;;;;;5064864;28;20021;-80
2021/08/01 06:42:00;;;;;;;7.10;5.55;;;19.00;67.10;;;;;;5063815;28;20035;-81
2021/08/01 06:44:25;;;;;;;6.72;5.15;;;19.00;67.10;;;;;;5068947;28;20036;-82
2021/08/01 06:46:51;;;;;;;6.00;4.60;;;19.00;67.10;;;;;;5061857;28;20447;-82
2021/08/01 06:49:17;;;;;;;6.70;5.00;;;19.00;67.10;;;;;;5042080;28;20028;-82
2021/08/01 06:51:43;;;;;;;7.32;5.57;;;19.00;67.10;;;;;;5053310;28;20365;-83
2021/08/01 06:54:08;;;;;;;8.40;6.00;;;19.00;67.10;;;;;;5042736;28;20033;-83
2021/08/01 06:56:34;;;;;;;7.13;5.65;;;19.10;67.20;;;;;;5042933;28;20048;-81
2021/08/01 06:59:00;;;;;;;7.97;5.47;;;19.10;67.20;;;;;;5039793;28;20032;-82
2021/08/01 07:01:25;;;;;;;7.13;5.70;;;19.10;67.20;;;;;;5055216;28;20366;-83
2021/08/01 07:03:51;;;;;;;6.30;5.00;;;19.10;67.30;;;;;;5076679;28;20141;-81
2021/08/01 07:06:17;;;;;;;7.35;5.15;;;19.10;67.20;;;;;;5057193;28;20035;-82
2021/08/01 07:08:43;;;;;;;7.45;5.45;;;19.10;67.20;;;;;;5068669;28;20029;-84
2021/08/01 07:11:09;;;;;;;7.28;5.63;;;19.10;67.20;;;;;;5055893;28;20025;-82
2021/08/01 07:13:36;;;;;;;7.88;5.93;;;19.10;67.20;;;;;;5066665;28;20841;-82
2021/08/01 07:16:05;;;;;;;7.57;6.22;;;19.10;67.20;;;;;;5074794;28;20032;-80
2021/08/01 07:18:31;;;;;;;8.13;5.88;;;19.10;67.20;;;;;;5061883;28;20039;-86
2021/08/01 07:20:58;;;;;;;7.15;5.45;;;19.20;67.30;;;;;;5056645;28;20032;-82
2021/08/01 07:23:23;;;;;;;8.48;6.00;;;19.20;67.30;;;;;;5049867;28;20032;-86
2021/08/01 07:25:50;;;;;;;8.60;5.97;;;19.10;67.20;;;;;;5086345;28;20533;-83
2021/08/01 07:28:16;;;;;;;9.00;6.35;;;19.20;67.30;;;;;;5076419;28;20035;-80
2021/08/01 07:30:41;;;;;;;8.60;6.00;;;19.20;67.30;;;;;;5051868;28;20016;-82
2021/08/01 07:33:07;;;;;;;7.75;5.90;;;19.20;67.30;;;;;;5065744;28;20420;-82
2021/08/01 07:35:33;;;;;;;8.23;6.10;;;19.20;67.30;;;;;;5078623;28;20040;-84
2021/08/01 07:37:59;;;;;;;8.20;6.18;;;19.20;67.30;;;;;;5052016;28;20496;-83
2021/08/01 07:40:24;;;;;;;8.93;6.88;;;19.20;67.30;;;;;;5058721;28;20024;-79
2021/08/01 07:42:50;;;;;;;8.10;5.75;;;19.20;67.20;;;;;;5063390;28;20028;-79
2021/08/01 07:45:24;;;;;;;7.70;5.75;;;19.30;67.40;;;;;;5058177;28;20177;-82
2021/08/01 07:47:51;;;;;;;9.93;6.67;;;19.30;67.30;;;;;;5085419;28;20532;-80
2021/08/01 07:50:17;;;;;;;8.40;5.95;;;19.30;67.30;;;;;;5064422;28;20028;-83
2021/08/01 07:52:43;;;;;;;7.90;5.63;;;19.30;67.30;;;;;;5064247;28;20056;-81
2021/08/01 07:55:14;;;;;;;8.52;6.28;;;19.30;67.30;;;;;;5066601;28;20527;-81
2021/08/01 07:57:40;;;;;;;8.57;6.55;;;19.30;67.30;;;;;;5061204;28;20082;-83
2021/08/01 08:00:06;;;;;;;9.10;7.00;;;19.30;67.30;;;;;;5041882;28;20036;-85
2021/08/01 08:02:45;;;;;;;8.82;6.32;;;19.30;67.30;;;;;;5055530;28;20020;-85
2021/08/01 08:05:11;;;;;;;9.40;6.55;;;19.30;67.30;;;;;;5043858;28;20032;-82
2021/08/01 08:07:37;;;;;;;8.00;6.10;;;19.30;67.30;;;;;;5080761;28;20033;-84
2021/08/01 08:10:04;;;;;;;8.05;6.00;;;19.40;67.30;;;;;;5051611;28;20035;-80
2021/08/01 08:12:30;;;;;;;8.48;6.65;;;19.40;67.40;;;;;;5053142;28;20021;-82
2021/08/01 08:14:56;;;;;;;10.05;7.22;;;19.40;67.30;;;;;;5055382;28;20024;-83
2021/08/01 08:17:21;;;;;;;8.48;6.45;;;19.40;67.30;;;;;;5069609;28;20523;-80
2021/08/01 08:19:47;;;;;;;9.20;6.95;;;19.30;67.30;;;;;;5050348;28;20028;-83
2021/08/01 08:22:13;;;;;;;8.60;6.82;;;19.40;67.30;;;;;;5028011;28;20028;-80
2021/08/01 08:24:39;;;;;;;9.55;6.68;;;19.40;67.30;;;;;;5054397;28;20472;-81
2021/08/01 08:27:05;;;;;;;9.63;7.15;;;19.40;67.30;;;;;;5043971;28;20039;-85
2021/08/01 08:29:31;;;;;;;10.55;7.80;;;19.40;67.30;;;;;;5049385;28;20107;-81
2021/08/01 08:31:58;;;;;;;11.65;7.68;;;19.40;67.30;;;;;;5037624;28;20435;-83
2021/08/01 08:34:24;;;;;;;9.13;6.72;;;19.40;67.30;;;;;;5061558;28;20052;-82
2021/08/01 08:36:53;;;;;;;9.82;7.20;;;19.40;67.30;;;;;;5080418;28;20028;-81
2021/08/01 08:39:21;;;;;;;10.23;7.35;;;19.40;67.30;;;;;;5045401;28;20385;-81
2021/08/01 08:41:48;;;;;;;10.23;7.70;;;19.40;67.30;;;;;;5054815;28;20029;-83
2021/08/01 08:44:15;;;;;;;12.25;7.68;;;19.50;67.30;;;;;;5071539;28;20020;-80
2021/08/01 08:46:41;;;;;;;9.88;7.72;;;19.50;67.30;;;;;;5091881;28;20032;-79
2021/08/01 08:49:12;;;;;;;9.82;7.38;;;19.50;67.30;;;;;;5057590;28;20111;-79
2021/08/01 08:51:43;;;;;;;9.68;7.13;;;19.50;67.40;;;;;;5063364;28;20032;-80
2021/08/01 08:54:17;;;;;;;11.60;8.35;;;19.50;67.40;;;;;;5057244;28;20028;-80
2021/08/01 08:56:45;;;;;;;10.32;7.80;;;19.50;67.40;;;;;;5066180;28;20127;-80
2021/08/01 08:59:18;;;;;;;10.20;7.65;;;19.50;67.30;;;;;;5054793;28;20496;-80
2021/08/01 09:01:44;;;;;;;10.75;7.75;;;19.50;67.30;;;;;;5084036;28;20111;-80
2021/08/01 09:04:10;;;;;;;12.13;8.70;;;19.50;67.30;;;;;;5091511;28;20459;-80
2021/08/01 09:06:36;;;;;;;11.30;8.25;;;19.50;67.30;;;;;;5083348;28;20180;-80
2021/08/01 09:09:03;;;;;;;11.93;8.20;;;19.60;67.30;;;;;;5048229;28;20032;-79
2021/08/01 09:11:29;;;;;;;11.75;8.15;;;19.60;67.30;;;;;;5083878;28;20041;-80
2021/08/01 09:13:57;;;;;;;12.65;8.57;;;19.60;67.30;;;;;;5063193;28;20028;-80
2021/08/01 09:16:44;;;;;;;10.27;7.63;;;19.60;67.30;;;;;;5049582;28;20107;-80
2021/08/01 09:19:32;;;;;;;10.70;7.90;;;19.60;67.40;;;;;;5066927;28;20444;-80
2021/08/01 09:22:18;;;;;;;11.00;7.63;;;19.60;67.40;;;;;;5092331;28;20051;-81
2021/08/01 09:24:45;;;;;;;10.70;8.05;;;19.60;67.30;;;;;;5092084;28;20016;-81
2021/08/01 09:27:31;;;;;;;10.02;7.40;;;19.70;67.20;;;;;;5045271;28;20372;-80
2021/08/01 09:29:58;;;;;;;11.60;8.00;;;19.70;67.40;;;;;;5053909;28;20024;-81
2021/08/01 09:32:25;;;;;;;10.38;7.57;;;19.70;67.20;;;;;;5065812;28;20024;-81
2021/08/01 09:34:51;;;;;;;11.50;8.93;;;19.70;67.30;;;;;;5056287;28;20060;-80
2021/08/01 09:37:34;;;;;;;11.27;8.07;;;19.70;67.30;;;;;;5053763;28;20036;-80
2021/08/01 09:40:10;;;;;;;12.40;8.45;;;19.80;67.40;;;;;;5045867;28;20448;-81
2021/08/01 09:42:45;;;;;;;10.35;7.70;;;19.80;67.30;;;;;;5069051;28;20047;-82
2021/08/01 09:45:22;;;;;;;11.55;8.32;;;19.80;67.30;;;;;;5053035;28;20028;-81
2021/08/01 09:47:49;;;;;;;10.10;7.95;;;19.80;67.30;;;;;;5083667;28;20020;-80
2021/08/01 09:50:17;;;;;;;9.25;7.55;;;19.80;67.20;;;;;;5066213;28;20465;-80
2021/08/01 09:52:43;;;;;;;10.48;8.13;;;19.90;67.20;;;;;;5065471;28;20031;-80
2021/08/01 09:55:20;;;;;;;11.50;8.52;;;19.90;67.20;;;;;;5077739;28;20067;-79
2021/08/01 09:57:52;;;;;;;10.75;7.45;;;19.90;67.30;;;;;;5051523;28;20037;-79
2021/08/01 10:00:19;;;;;;;10.85;7.97;;;19.90;67.10;;;;;;5063726;28;20498;-79
2021/08/01 10:02:45;;;;;;;10.07;7.63;;;19.90;67.10;;;;;;5068045;28;20068;-80
2021/08/01 10:05:21;;;;;;;11.63;8.80;;;20.00;67.10;;;;;;5047174;28;20115;-80
2021/08/01 10:07:49;;;;;;;9.50;7.10;;;20.00;67.20;;;;;;5086535;28;20036;-80
2021/08/01 10:10:26;;;;;;;10.20;7.70;;;20.00;67.00;;;;;;5068616;28;20031;-82
2021/08/01 10:12:57;;;;;;;10.68;7.45;;;20.10;67.20;;;;;;5068878;28;20040;-80
2021/08/01 10:15:24;;;;;;;11.43;8.15;;;20.10;67.00;;;;;;5077072;28;20028;-80
2021/08/01 10:17:51;;;;;;;10.52;7.68;;;20.20;66.90;;;;;;5059064;28;20469;-80
2021/08/01 10:20:18;;;;;;;10.18;7.68;;;20.20;66.90;;;;;;5077290;28;20043;-80
2021/08/01 10:22:45;;;;;;;9.75;6.70;;;20.20;66.80;;;;;;5049270;28;20082;-81
2021/08/01 10:25:17;;;;;;;10.02;7.28;;;20.30;66.80;;;;;;5060556;28;20384;-80
2021/08/01 10:27:46;;;;;;;9.10;6.70;;;20.40;66.80;;;;;;5060652;28;20443;-81
2021/08/01 10:30:18;;;;;;;9.15;7.43;;;20.40;66.70;;;;;;5048573;28;20032;-80
2021/08/01 10:32:47;;;;;;;9.13;7.00;;;20.50;66.70;;;;;;5090968;28;20093;-81
2021/08/01 10:35:21;;;;;;;9.43;7.20;;;20.60;66.70;;;;;;5068028;28;20035;-81
2021/08/01 10:37:59;;;;;;;9.63;7.33;;;20.60;66.60;;;;;;5060663;28;20109;-80
2021/08/01 10:40:26;;;;;;;8.43;6.75;;;20.70;66.60;;;;;;5040378;28;20020;-81
2021/08/01 10:43:00;;;;;;;10.00;7.40;;;20.80;66.60;;;;;;5083464;28;20024;-80
2021/08/01 10:45:26;;;;;;;9.60;7.22;;;20.80;66.60;;;;;;5059310;28;20072;-80
2021/08/01 10:47:53;;;;;;;9.00;6.78;;;20.90;66.40;;;;;;5045861;28;20528;-80
2021/08/01 10:50:25;;;;;;;8.65;6.90;;;21.00;66.40;;;;;;5066237;28;20159;-81
2021/08/01 10:53:23;;;;;;;10.40;7.03;;;21.10;66.40;;;;;;5054765;28;20024;-82
2021/08/01 10:55:52;;;;;;;8.82;6.55;;;21.10;66.50;;;;;;5078032;28;20135;-81
2021/08/01 10:58:18;;;;;;;8.15;6.72;;;21.20;66.20;;;;;;5076596;28;20028;-81
2021/08/01 11:01:00;;;;;;;8.65;6.85;;;21.20;66.10;;;;;;5027016;28;20036;-81
2021/08/01 11:03:27;;;;;;;9.23;7.20;;;21.30;66.30;;;;;;5076294;28;20028;-81
2021/08/01 11:05:53;;;;;;;8.75;6.32;;;21.30;66.00;;;;;;5076468;28;20028;-81
2021/08/01 11:08:19;;;;;;;7.90;6.43;;;21.40;66.10;;;;;;5059383;28;20076;-81
2021/08/01 11:10:45;;;;;;;8.90;6.90;;;21.40;66.10;;;;;;5059210;28;20123;-80
2021/08/01 11:13:29;;;;;;;10.07;7.63;;;21.40;66.00;;;;;;5059397;28;20032;-82
2021/08/01 11:15:55;;;;;;;8.88;6.75;;;21.50;66.20;;;;;;5064712;28;20115;-80
2021/08/01 11:18:35;;;;;;;9.73;7.20;;;21.50;65.90;;;;;;5053918;28;20032;-80
2021/08/01 11:21:04;;;;;;;9.57;6.95;;;21.50;66.10;;;;;;5091077;28;20033;-80
2021/08/01 11:23:47;;;;;;;9.68;6.82;;;21.50;66.00;;;;;;5054081;28;20036;-80
2021/08/01 11:26:15;;;;;;;8.20;6.15;;;21.50;66.00;;;;;;5064095;28;20093;-81
2021/08/01 11:28:43;;;;;;;8.88;6.35;;;21.50;65.90;;;;;;5082355;28;20088;-81
2021/08/01 11:31:18;;;;;;;8.35;6.40;;;21.60;66.00;;;;;;5066702;28;20028;-80
2021/08/01 11:33:47;;;;;;;9.43;6.53;;;21.50;66.00;;;;;;5067537;28;20483;-80
2021/08/01 11:36:13;;;;;;;8.85;6.70;;;21.60;66.00;;;;;;5082221;28;20032;-80
2021/08/01 11:38:47;;;;;;;10.13;7.15;;;21.60;66.00;;;;;;5069914;28;20051;-79
2021/08/01 11:41:35;;;;;;;8.63;6.18;;;21.60;66.40;;;;;;5040347;28;20121;-81
2021/08/01 11:44:04;;;;;;;8.05;6.00;;;21.60;66.90;;;;;;5064561;28;20028;-80
2021/08/01 11:46:52;;;;;;;7.18;5.25;;;21.60;66.10;;;;;;5058793;28;20523;-80
2021/08/01 11:49:37;;;;;;;7.68;5.93;;;21.60;66.30;;;;;;5065320;28;20476;-81
2021/08/01 11:52:04;;;;;;;;;;;21.60;66.20;;;;;;5047776;28;20470;-80
2021/08/01 11:54:41;;;;;;;6.57;4.85;;;21.60;66.00;;;;;;5049481;28;19912;-80
2021/08/01 11:57:13;;;;;;;7.22;5.38;;;21.60;66.10;;;;;;5093530;28;20104;-80
2021/08/01 11:59:40;;;;;;;6.55;4.88;;;21.60;66.10;;;;;;5071284;28;20491;-79
2021/08/01 12:02:11;;;;;;;7.13;5.18;;;21.70;66.20;;;;;;5070186;28;20025;-80
2021/08/01 12:04:38;;;;;;;7.47;5.20;;;21.70;66.20;;;;;;5057095;28;20052;-80
2021/08/01 12:07:05;;;;;;;7.85;5.68;;;21.70;66.10;;;;;;5093449;28;20036;-80
2021/08/01 12:09:37;;;;;;;7.57;5.15;;;21.70;66.10;;;;;;5041416;28;20029;-79
2021/08/01 12:12:04;;;;;;;7.47;5.05;;;21.70;66.10;;;;;;5049912;28;20069;-79
2021/08/01 12:14:35;;;;;;;6.22;4.45;;;21.80;66.10;;;;;;5058643;28;20418;-79
2021/08/01 12:17:12;;;;;;;6.50;4.47;;;21.80;66.00;;;;;;5058556;28;20376;-79
2021/08/01 12:19:45;;;;;;;6.82;4.97;;;21.80;66.10;;;;;;5066826;28;20028;-79
2021/08/01 12:22:16;;;;;;;6.97;4.68;;;21.80;66.10;;;;;;5046883;28;20097;-78
2021/08/01 12:24:50;;;;;;;7.10;5.05;;;21.80;66.10;;;;;;5043336;28;20017;-79
2021/08/01 12:27:25;;;;;;;7.53;4.80;;;21.80;66.10;;;;;;5076525;28;20073;-79
2021/08/01 12:29:56;;;;;;;5.90;4.72;;;21.80;66.10;;;;;;5066409;28;20034;-79
2021/08/01 12:32:44;;;;;;;6.43;4.63;;;21.80;66.10;;;;;;5049563;28;20381;-79
2021/08/01 12:35:10;;;;;;;6.43;4.72;;;21.80;66.10;;;;;;5064340;28;20061;-80
2021/08/01 12:37:52;;;;;;;5.88;4.07;;;21.80;66.00;;;;;;5046287;28;20102;-79
2021/08/01 12:40:28;;;;;;;6.05;4.47;;;21.90;66.20;;;;;;5070933;28;20032;-79
2021/08/01 12:42:56;;;;;;;6.47;4.40;;;21.80;66.10;;;;;;5062732;28;20081;-79
2021/08/01 12:45:39;;;;;;;5.85;4.40;;;21.90;66.10;;;;;;5064699;28;20021;-79
2021/08/01 12:48:10;;;;;;;6.28;4.13;;;21.90;66.10;;;;;;5074469;28;20095;-79
2021/08/01 12:50:37;;;;;;;6.15;4.40;;;21.90;66.10;;;;;;5038222;28;20071;-79
2021/08/01 12:53:03;;;;;;;6.13;4.28;;;22.00;66.10;;;;;;5050684;28;20028;-80
2021/08/01 12:55:30;;;;;;;5.68;4.07;;;22.00;66.10;;;;;;5072735;28;20060;-79
2021/08/01 12:58:05;;;;;;;5.60;3.50;;;21.90;66.00;;;;;;5056423;28;20172;-80